createdAt,value
2023-01-29T00:02:21.601Z,100774.81
2023-01-29T00:05:28.114Z,100785.13
2023-01-29T00:08:31.142Z,100785.87
2023-01-29T00:11:33.933Z,100786.69
2023-01-29T00:14:36.328Z,100782.66
2023-01-29T00:17:39.029Z,100790.41
2023-01-29T00:20:43.922Z,100783.22
2023-01-29T00:23:47.209Z,100782.97
2023-01-29T00:26:50.384Z,100783.84
2023-01-29T00:30:09.281Z,100791.62
2023-01-29T00:33:13.519Z,100791.72
2023-01-29T00:36:18.224Z,100802.94
2023-01-29T00:39:31.352Z,100798.97
2023-01-29T00:42:54.996Z,100797.53
2023-01-29T00:45:57.526Z,100800.41
2023-01-29T00:49:03.281Z,100798.97
2023-01-29T00:52:24.055Z,100808.38
2023-01-29T00:55:26.707Z,100818.06
2023-01-29T00:58:34.244Z,100816.66
2023-01-29T01:01:55.835Z,100819.41
2023-01-29T01:04:58.317Z,100813.66
2023-01-29T01:08:00.992Z,100813.69
2023-01-29T01:11:06.519Z,100820.44
2023-01-29T01:14:09.696Z,100817.13
2023-01-29T01:17:12.120Z,100821.56
2023-01-29T01:20:15.364Z,100826.09
2023-01-29T01:23:19.470Z,100823.81
2023-01-29T01:26:23.536Z,100827.03
2023-01-29T01:29:25.887Z,100832.25
2023-01-29T01:32:28.813Z,100828.75
2023-01-29T01:35:31.344Z,100826.38
2023-01-29T01:38:34.078Z,100828.00
2023-01-29T01:41:36.611Z,100833.13
2023-01-29T01:44:54.833Z,100832.25
2023-01-29T01:48:19.745Z,100832.16
2023-01-29T01:51:26.353Z,100837.44
2023-01-29T01:54:32.399Z,100839.78
2023-01-29T01:57:36.372Z,100843.03
2023-01-29T02:00:39.824Z,100848.22
2023-01-29T02:04:09.327Z,100852.31
2023-01-29T02:07:34.080Z,100859.25
2023-01-29T02:10:42.710Z,100859.34
2023-01-29T02:13:45.872Z,100864.31
2023-01-29T02:16:48.380Z,100869.22
2023-01-29T02:20:10.583Z,100864.22
2023-01-29T02:23:44.406Z,100864.22
2023-01-29T02:27:14.271Z,100871.88
2023-01-29T02:30:28.629Z,100867.56
2023-01-29T02:33:46.408Z,100877.78
2023-01-29T02:36:56.060Z,100884.59
2023-01-29T02:40:29.725Z,100881.28
2023-01-29T02:43:45.585Z,100882.41
2023-01-29T02:47:06.723Z,100890.91
2023-01-29T02:50:09.070Z,100889.22
2023-01-29T02:53:19.784Z,100892.72
2023-01-29T02:56:29.375Z,100893.66
2023-01-29T02:59:40.928Z,100894.28
2023-01-29T03:02:49.141Z,100889.06
2023-01-29T03:06:06.437Z,100894.00
2023-01-29T03:09:22.499Z,100890.31
2023-01-29T03:12:34.040Z,100887.38
2023-01-29T03:15:47.497Z,100900.63
2023-01-29T03:19:05.400Z,100901.00
2023-01-29T03:22:10.124Z,100898.72
2023-01-29T03:25:34.644Z,100901.91
2023-01-29T03:28:58.308Z,100906.62
2023-01-29T03:32:04.435Z,100901.34
2023-01-29T03:35:09.960Z,100912.97
2023-01-29T03:38:12.823Z,100903.50
2023-01-29T03:41:25.285Z,100910.06
2023-01-29T03:44:31.167Z,100903.06
2023-01-29T03:47:44.116Z,100914.75
2023-01-29T03:51:02.439Z,100913.00
2023-01-29T03:54:18.443Z,100914.66
2023-01-29T03:57:56.190Z,100913.75
2023-01-29T04:01:09.217Z,100917.84
2023-01-29T04:04:18.960Z,100925.59
2023-01-29T04:07:24.632Z,100929.81
2023-01-29T04:10:32.280Z,100923.88
2023-01-29T04:13:36.290Z,100931.59
2023-01-29T04:16:44.858Z,100927.25
2023-01-29T04:19:48.525Z,100927.31
2023-01-29T04:22:52.456Z,100928.91
2023-01-29T04:26:16.792Z,100921.22
2023-01-29T04:29:43.829Z,100927.91
2023-01-29T04:33:29.397Z,100927.88
2023-01-29T04:37:19.869Z,100927.97
2023-01-29T04:40:37.716Z,100922.72
2023-01-29T04:43:44.403Z,100920.16
2023-01-29T04:46:52.837Z,100913.19
2023-01-29T04:50:08.751Z,100909.91
2023-01-29T04:53:15.604Z,100911.59
2023-01-29T04:56:29.694Z,100911.59
2023-01-29T04:59:57.545Z,100920.09
2023-01-29T05:03:01.854Z,100921.87
2023-01-29T05:06:05.790Z,100924.31
2023-01-29T05:09:09.956Z,100926.00
2023-01-29T05:12:16.414Z,100925.09
2023-01-29T05:15:29.371Z,100927.66
2023-01-29T05:18:32.666Z,100926.00
2023-01-29T05:21:35.395Z,100926.75
2023-01-29T05:24:38.034Z,100926.00
2023-01-29T05:27:59.850Z,100922.63
2023-01-29T05:31:02.669Z,100929.50
2023-01-29T05:34:05.459Z,100926.09
2023-01-29T05:37:09.388Z,100926.09
2023-01-29T05:40:12.450Z,100930.34
2023-01-29T05:43:22.846Z,100930.25
2023-01-29T05:46:25.640Z,100931.13
2023-01-29T05:49:28.322Z,100941.41
2023-01-29T05:52:31.038Z,100939.75
2023-01-29T05:55:33.495Z,100932.00
2023-01-29T05:58:36.321Z,100941.31
2023-01-29T06:01:41.659Z,100944.78
2023-01-29T06:04:44.383Z,100934.50
2023-01-29T06:07:47.106Z,100942.13
2023-01-29T06:10:49.788Z,100948.16
2023-01-29T06:13:52.277Z,100951.59
2023-01-29T06:16:54.961Z,100947.22
2023-01-29T06:19:57.296Z,100954.88
2023-01-29T06:23:00.139Z,100945.50
2023-01-29T06:26:05.937Z,100946.31
2023-01-29T06:29:11.487Z,100960.81
2023-01-29T06:32:13.943Z,100963.41
2023-01-29T06:35:16.846Z,100972.06
2023-01-29T06:38:19.188Z,100973.63
2023-01-29T06:41:25.397Z,100971.06
2023-01-29T06:44:27.956Z,100977.84
2023-01-29T06:47:30.696Z,100980.44
2023-01-29T06:50:33.103Z,100985.47
2023-01-29T06:53:37.548Z,100997.38
2023-01-29T06:56:39.964Z,100999.25
2023-01-29T06:59:42.964Z,100995.75
2023-01-29T07:02:45.382Z,100999.03
2023-01-29T07:05:52.989Z,101004.19
2023-01-29T07:08:55.739Z,101009.31
2023-01-29T07:11:58.504Z,101007.41
2023-01-29T07:15:00.922Z,101002.28
2023-01-29T07:18:05.503Z,101002.22
2023-01-29T07:21:08.204Z,100998.78
2023-01-29T07:24:11.042Z,101007.38
2023-01-29T07:27:15.898Z,101004.66
2023-01-29T07:30:19.001Z,101002.06
2023-01-29T07:33:21.687Z,100998.47
2023-01-29T07:36:24.628Z,100989.84
2023-01-29T07:39:27.024Z,101003.63
2023-01-29T07:42:29.769Z,101008.78
2023-01-29T07:45:34.572Z,101000.09
2023-01-29T07:48:37.335Z,100996.50
2023-01-29T07:51:39.643Z,100996.63
2023-01-29T07:54:42.332Z,100994.75
2023-01-29T07:57:44.743Z,100998.25
2023-01-29T08:00:47.476Z,100998.22
2023-01-29T08:03:51.423Z,101003.16
2023-01-29T08:06:53.873Z,101000.75
2023-01-29T08:09:56.521Z,100994.75
2023-01-29T08:13:01.178Z,101001.38
2023-01-29T08:16:04.801Z,100995.28
2023-01-29T08:19:07.211Z,100989.31
2023-01-29T08:22:10.008Z,100999.72
2023-01-29T08:25:13.690Z,101008.22
2023-01-29T08:28:16.504Z,100997.84
2023-01-29T08:31:23.275Z,101001.28
2023-01-29T08:34:26.055Z,101000.25
2023-01-29T08:37:28.484Z,100996.03
2023-01-29T08:40:34.076Z,101004.56
2023-01-29T08:43:39.909Z,101006.91
2023-01-29T08:46:42.618Z,101006.00
2023-01-29T08:49:45.092Z,101008.47
2023-01-29T08:52:51.777Z,101019.41
2023-01-29T08:55:54.253Z,101016.16
2023-01-29T08:58:58.352Z,101027.13
2023-01-29T09:02:01.635Z,101027.94
2023-01-29T09:05:04.774Z,101032.28
2023-01-29T09:08:08.296Z,101036.34
2023-01-29T09:11:11.391Z,101031.38
2023-01-29T09:14:14.780Z,101037.22
2023-01-29T09:17:17.564Z,101039.12
2023-01-29T09:20:20.326Z,101052.66
2023-01-29T09:23:23.260Z,101040.00
2023-01-29T09:26:25.718Z,101045.91
2023-01-29T09:29:28.568Z,101049.44
2023-01-29T09:33:04.895Z,101054.59
2023-01-29T09:35:53.779Z,101058.03
2023-01-29T09:38:56.183Z,101053.69
2023-01-29T09:42:23.088Z,101050.63
2023-01-29T09:45:29.757Z,101057.34
2023-01-29T09:48:36.529Z,101059.84
2023-01-29T09:51:43.501Z,101058.19
2023-01-29T09:55:07.543Z,101054.81
2023-01-29T09:58:28.264Z,101062.47
2023-01-29T10:01:39.298Z,101056.56
2023-01-29T10:05:13.287Z,101061.06
2023-01-29T10:08:24.491Z,101064.44
2023-01-29T10:11:27.063Z,101062.06
2023-01-29T10:14:38.056Z,101070.63
2023-01-29T10:17:50.557Z,101073.06
2023-01-29T10:20:58.887Z,101071.31
2023-01-29T10:24:34.780Z,101068.16
2023-01-29T10:27:41.327Z,101068.09
2023-01-29T10:30:54.908Z,101057.44
2023-01-29T10:34:05.003Z,101060.81
2023-01-29T10:37:40.977Z,101052.94
2023-01-29T10:40:56.103Z,101052.12
2023-01-29T10:44:21.002Z,101054.63
2023-01-29T10:47:40.613Z,101052.75
2023-01-29T10:51:01.187Z,101058.66
2023-01-29T10:54:18.785Z,101053.34
2023-01-29T10:57:53.402Z,101048.25
2023-01-29T11:00:56.482Z,101057.59
2023-01-29T11:04:13.076Z,101046.44
2023-01-29T11:07:19.552Z,101045.47
2023-01-29T11:10:24.007Z,101041.22
2023-01-29T11:13:32.780Z,101036.94
2023-01-29T11:16:44.438Z,101037.97
2023-01-29T11:19:48.712Z,101030.37
2023-01-29T11:22:55.779Z,101022.78
2023-01-29T11:25:59.838Z,101019.25
2023-01-29T11:29:02.488Z,101013.13
2023-01-29T11:32:14.144Z,101009.81
2023-01-29T11:35:16.811Z,101016.56
2023-01-29T11:38:25.496Z,101019.34
2023-01-29T11:41:28.319Z,101010.66
2023-01-29T11:44:39.784Z,101008.84
2023-01-29T11:47:50.517Z,101003.47
2023-01-29T11:50:57.465Z,100997.41
2023-01-29T11:54:04.356Z,101006.84
2023-01-29T11:57:30.217Z,101000.94
2023-01-29T12:00:36.006Z,100996.66
2023-01-29T12:03:46.172Z,100993.16
2023-01-29T12:06:52.707Z,100988.03
2023-01-29T12:09:59.702Z,100975.84
2023-01-29T12:13:11.080Z,100974.28
2023-01-29T12:16:36.800Z,100969.25
2023-01-29T12:19:46.401Z,100964.97
2023-01-29T12:23:08.852Z,100962.94
2023-01-29T12:26:16.162Z,100964.94
2023-01-29T12:29:48.268Z,100952.94
2023-01-29T12:33:01.222Z,100940.44
2023-01-29T12:36:21.975Z,100930.09
2023-01-29T12:39:24.456Z,100939.88
2023-01-29T12:42:27.829Z,100940.38
2023-01-29T12:45:32.995Z,100940.88
2023-01-29T12:48:42.798Z,100946.72
2023-01-29T12:52:15.575Z,100949.06
2023-01-29T12:55:27.258Z,100943.50
2023-01-29T12:58:38.127Z,100945.44
2023-01-29T13:01:52.653Z,100942.44
2023-01-29T13:05:21.148Z,100945.09
2023-01-29T13:08:39.576Z,100936.22
2023-01-29T13:11:51.349Z,100939.38
2023-01-29T13:15:05.617Z,100938.56
2023-01-29T13:18:35.900Z,100933.09
2023-01-29T13:21:42.405Z,100933.41
2023-01-29T13:24:55.465Z,100935.94
2023-01-29T13:28:17.103Z,100942.00
2023-01-29T13:31:35.612Z,100932.81
2023-01-29T13:34:48.946Z,100937.31
2023-01-29T13:37:54.912Z,100937.28
2023-01-29T13:41:02.013Z,100940.81
2023-01-29T13:44:20.706Z,100929.88
2023-01-29T13:47:37.184Z,100932.34
2023-01-29T13:50:43.001Z,100930.00
2023-01-29T13:54:07.666Z,100923.09
2023-01-29T13:57:56.682Z,100920.22
2023-01-29T14:01:02.653Z,100928.00
2023-01-29T14:04:28.319Z,100922.38
2023-01-29T14:07:50.117Z,100927.56
2023-01-29T14:11:17.746Z,100930.12
2023-01-29T14:14:47.763Z,100933.53
2023-01-29T14:18:02.419Z,100936.16
2023-01-29T14:21:20.052Z,100939.84
2023-01-29T14:24:29.675Z,100923.78
2023-01-29T14:27:33.006Z,100922.97
2023-01-29T14:30:41.256Z,100925.59
2023-01-29T14:33:44.763Z,100919.53
2023-01-29T14:36:55.302Z,100921.13
2023-01-29T14:40:07.683Z,100911.78
2023-01-29T14:43:20.111Z,100916.00
2023-01-29T14:46:34.345Z,100923.72
2023-01-29T14:49:54.749Z,100921.22
2023-01-29T14:53:19.833Z,100905.88
2023-01-29T14:56:40.936Z,100905.88
2023-01-29T14:59:57.068Z,100909.53
2023-01-29T15:03:02.581Z,100915.53
2023-01-29T15:06:08.062Z,100914.78
2023-01-29T15:09:16.518Z,100913.31
2023-01-29T15:12:27.852Z,100919.31
2023-01-29T15:15:54.492Z,100920.38
2023-01-29T15:19:12.431Z,100919.63
2023-01-29T15:22:22.377Z,100920.53
2023-01-29T15:25:25.598Z,100922.31
2023-01-29T15:28:34.437Z,100910.31
2023-01-29T15:31:37.020Z,100925.72
2023-01-29T15:34:43.890Z,100916.41
2023-01-29T15:37:59.132Z,100912.28
2023-01-29T15:41:04.673Z,100907.19
2023-01-29T15:44:16.703Z,100908.16
2023-01-29T15:47:22.743Z,100909.06
2023-01-29T15:50:25.362Z,100911.72
2023-01-29T15:53:44.419Z,100922.81
2023-01-29T15:56:49.715Z,100914.31
2023-01-29T15:59:56.260Z,100921.87
2023-01-29T16:03:00.761Z,100933.00
2023-01-29T16:06:03.949Z,100932.19
2023-01-29T16:09:07.890Z,100935.66
2023-01-29T16:12:13.133Z,100945.16
2023-01-29T16:15:23.839Z,100947.62
2023-01-29T16:18:36.543Z,100949.47
2023-01-29T16:21:45.999Z,100953.75
2023-01-29T16:24:53.292Z,100956.38
2023-01-29T16:27:56.102Z,100952.06
2023-01-29T16:31:03.887Z,100953.81
2023-01-29T16:34:29.300Z,100958.16
2023-01-29T16:37:35.809Z,100972.63
2023-01-29T16:40:40.851Z,100972.72
2023-01-29T16:43:48.022Z,100974.38
2023-01-29T16:46:53.632Z,100966.72
2023-01-29T16:50:19.165Z,100960.81
2023-01-29T16:53:24.581Z,100957.38
2023-01-29T16:56:31.690Z,100961.50
2023-01-29T16:59:38.127Z,100957.28
2023-01-29T17:02:40.859Z,100962.44
2023-01-29T17:05:43.766Z,100973.59
2023-01-29T17:08:46.786Z,100970.13
2023-01-29T17:11:56.085Z,100972.72
2023-01-29T17:15:05.148Z,100975.13
2023-01-29T17:18:17.179Z,100970.00
2023-01-29T17:21:19.901Z,100971.66
2023-01-29T17:24:22.669Z,100969.09
2023-01-29T17:27:26.537Z,100968.94
2023-01-29T17:30:33.930Z,100964.75
2023-01-29T17:33:41.232Z,100960.47
2023-01-29T17:36:44.677Z,100958.00
2023-01-29T17:39:50.645Z,100959.72
2023-01-29T17:42:53.090Z,100958.00
2023-01-29T17:45:55.847Z,100954.50
2023-01-29T17:48:58.312Z,100951.97
2023-01-29T17:52:00.981Z,100951.25
2023-01-29T17:55:03.472Z,100947.88
2023-01-29T17:58:09.181Z,100951.28
2023-01-29T18:01:11.616Z,100945.25
2023-01-29T18:04:14.927Z,100937.53
2023-01-29T18:07:17.373Z,100936.38
2023-01-29T18:10:21.762Z,100929.63
2023-01-29T18:13:24.601Z,100921.03
2023-01-29T18:16:27.531Z,100925.37
2023-01-29T18:19:31.766Z,100919.41
2023-01-29T18:22:34.584Z,100923.66
2023-01-29T18:25:37.824Z,100922.72
2023-01-29T18:28:43.454Z,100923.66
2023-01-29T18:31:48.465Z,100921.91
2023-01-29T18:34:51.311Z,100925.44
2023-01-29T18:37:53.787Z,100922.81
2023-01-29T18:41:04.086Z,100915.91
2023-01-29T18:44:06.654Z,100917.69
2023-01-29T18:47:09.462Z,100917.56
2023-01-29T18:50:12.286Z,100909.91
2023-01-29T18:53:15.136Z,100911.63
2023-01-29T18:56:17.763Z,100904.72
2023-01-29T18:59:20.579Z,100905.69
2023-01-29T19:02:23.374Z,100899.91
2023-01-29T19:05:26.253Z,100900.75
2023-01-29T19:08:31.569Z,100895.59
2023-01-29T19:11:34.356Z,100905.88
2023-01-29T19:14:36.859Z,100898.97
2023-01-29T19:17:39.557Z,100902.41
2023-01-29T19:20:42.380Z,100907.66
2023-01-29T19:23:45.064Z,100911.94
2023-01-29T19:26:47.562Z,100903.50
2023-01-29T19:29:51.058Z,100895.66
2023-01-29T19:32:54.796Z,100898.31
2023-01-29T19:35:58.573Z,100894.84
2023-01-29T19:39:00.956Z,100895.72
2023-01-29T19:42:05.898Z,100892.34
2023-01-29T19:45:08.958Z,100897.63
2023-01-29T19:48:11.793Z,100906.16
2023-01-29T19:51:14.699Z,100909.41
2023-01-29T19:54:17.498Z,100907.75
2023-01-29T19:57:19.995Z,100906.09
2023-01-29T20:00:22.816Z,100906.91
2023-01-29T20:03:26.791Z,100903.50
2023-01-29T20:06:32.812Z,100911.94
2023-01-29T20:09:35.541Z,100900.00
2023-01-29T20:12:38.318Z,100896.53
2023-01-29T20:15:46.051Z,100899.06
2023-01-29T20:18:48.831Z,100896.41
2023-01-29T20:21:51.728Z,100890.47
2023-01-29T20:24:54.438Z,100895.50
2023-01-29T20:27:57.255Z,100893.75
2023-01-29T20:31:00.067Z,100896.25
2023-01-29T20:34:03.022Z,100884.41
2023-01-29T20:37:07.413Z,100882.72
2023-01-29T20:40:11.222Z,100880.09
2023-01-29T20:43:13.692Z,100869.16
2023-01-29T20:46:16.603Z,100868.50
2023-01-29T20:49:19.349Z,100864.97
2023-01-29T20:52:22.012Z,100866.72
2023-01-29T20:55:24.791Z,100865.19
2023-01-29T20:58:27.607Z,100861.00
2023-01-29T21:01:30.117Z,100861.84
2023-01-29T21:04:32.780Z,100864.37
2023-01-29T21:07:36.215Z,100854.16
2023-01-29T21:10:39.095Z,100855.16
2023-01-29T21:13:42.652Z,100862.72
2023-01-29T21:16:45.458Z,100860.09
2023-01-29T21:19:47.971Z,100854.16
2023-01-29T21:22:50.771Z,100850.72
2023-01-29T21:25:53.264Z,100848.16
2023-01-29T21:28:56.056Z,100855.91
2023-01-29T21:31:58.612Z,100857.63
2023-01-29T21:35:01.482Z,100858.47
2023-01-29T21:38:04.869Z,100853.34
2023-01-29T21:41:10.010Z,100861.00
2023-01-29T21:44:12.671Z,100857.72
2023-01-29T21:47:15.452Z,100856.81
2023-01-29T21:50:18.269Z,100855.97
2023-01-29T21:53:23.336Z,100858.47
2023-01-29T21:56:25.781Z,100859.38
2023-01-29T21:59:28.547Z,100858.47
2023-01-29T22:02:32.233Z,100861.94
2023-01-29T22:05:35.181Z,100866.19
2023-01-29T22:08:37.587Z,100868.00
2023-01-29T22:11:41.668Z,100859.44
2023-01-29T22:14:44.794Z,100862.97
2023-01-29T22:17:47.567Z,100858.59
2023-01-29T22:20:57.004Z,100861.16
2023-01-29T22:23:59.750Z,100856.06
2023-01-29T22:27:02.103Z,100853.28
2023-01-29T22:30:05.895Z,100850.78
2023-01-29T22:33:08.411Z,100851.56
2023-01-29T22:36:11.157Z,100839.78
2023-01-29T22:39:13.512Z,100830.31
2023-01-29T22:42:19.277Z,100827.66
2023-01-29T22:45:21.698Z,100825.97
2023-01-29T22:48:24.443Z,100825.03
2023-01-29T22:51:26.975Z,100824.47
2023-01-29T22:54:29.754Z,100822.81
2023-01-29T22:57:32.251Z,100822.72
2023-01-29T23:00:35.026Z,100827.94
2023-01-29T23:03:37.507Z,100814.31
2023-01-29T23:06:40.202Z,100814.22
2023-01-29T23:09:42.695Z,100809.16
2023-01-29T23:12:45.515Z,100803.19
2023-01-29T23:15:59.443Z,100804.94
2023-01-29T23:19:02.261Z,100805.03
2023-01-29T23:22:04.808Z,100800.56
2023-01-29T23:25:07.909Z,100792.94
2023-01-29T23:28:10.745Z,100793.94
2023-01-29T23:31:14.038Z,100790.53
2023-01-29T23:34:16.625Z,100793.16
2023-01-29T23:37:19.335Z,100789.81
2023-01-29T23:40:21.707Z,100785.44
2023-01-29T23:43:28.629Z,100782.94
2023-01-29T23:46:31.640Z,100793.25
2023-01-29T23:49:34.533Z,100786.41
2023-01-29T23:52:36.990Z,100790.84
2023-01-29T23:55:39.635Z,100783.13
2023-01-29T23:58:42.128Z,100784.03
